Time;durP1;ratioP1;P1;durP2;ratioP2;P2;SDS_P1;SDS_P2;PMS_P1;PMS_P2;Temp;Humidity;BMP_temperature;BMP_pressure;BME280_temperature;BME280_humidity;BME280_pressure;Samples;Min_cycle;Max_cycle;Signal;HPM_P1;HPM_P2
2021/12/20 00:00:20;;;;;;;12.07;7.05;;;;;;;2.77;64.14;94887.69;5008236;28;20047;-73
2021/12/20 00:02:47;;;;;;;;;;;;;;;2.75;64.69;94894.94;5026875;28;20088;-73
2021/12/20 00:05:14;;;;;;;10.75;6.55;;;;;;;2.71;64.44;94890.88;5026281;28;19943;-73
2021/12/20 00:07:39;;;;;;;13.13;7.30;;;;;;;2.76;64.46;94888.66;5025845;28;20031;-74
2021/12/20 00:10:05;;;;;;;11.63;7.40;;;;;;;2.60;64.57;94886.56;5008247;28;20030;-75
2021/12/20 00:12:31;;;;;;;10.40;6.45;;;;;;;2.47;64.84;94885.06;5026025;28;20128;-73
2021/12/20 00:14:57;;;;;;;9.15;6.20;;;;;;;2.48;64.92;94883.25;5026547;28;20319;-74
2021/12/20 00:17:23;;;;;;;8.52;5.32;;;;;;;2.61;64.38;94884.78;5026138;28;20029;-74
2021/12/20 00:19:48;;;;;;;9.15;5.50;;;;;;;2.59;64.54;94876.97;5025975;28;20515;-74
2021/12/20 00:22:13;;;;;;;9.55;5.95;;;;;;;2.67;64.36;94881.56;5026141;28;20021;-74
2021/12/20 00:24:39;;;;;;;7.65;5.47;;;;;;;2.72;63.86;94879.31;5025392;28;20408;-74
2021/12/20 00:27:07;;;;;;;7.25;5.10;;;;;;;2.77;63.73;94881.56;5026299;28;20512;-73
2021/12/20 00:29:34;;;;;;;7.53;4.75;;;;;;;2.81;63.38;94877.63;5025742;28;20030;-74
2021/12/20 00:31:59;;;;;;;8.63;5.15;;;;;;;2.80;63.37;94890.06;5026399;28;20037;-74
2021/12/20 00:34:25;;;;;;;7.95;5.15;;;;;;;2.77;63.71;94877.09;5025653;28;20025;-74
2021/12/20 00:36:57;;;;;;;5.68;4.38;;;;;;;2.81;63.10;94865.22;5025997;28;20033;-73
2021/12/20 00:42:07;;;;;;;5.47;4.18;;;;;;;2.76;63.46;94870.09;5025581;28;20099;-74
2021/12/20 00:44:32;;;;;;;7.40;4.40;;;;;;;2.81;63.38;94867.88;5026279;28;20022;-75
2021/12/20 00:46:57;;;;;;;8.75;5.20;;;;;;;2.92;62.91;94873.97;5025236;28;20022;-74
2021/12/20 00:49:23;;;;;;;8.55;4.82;;;;;;;2.88;63.13;94867.31;5028453;28;20037;-74
2021/12/20 00:51:48;;;;;;;6.25;4.25;;;;;;;2.93;63.33;94865.06;5030048;28;20022;-74
2021/12/20 00:54:14;;;;;;;9.32;4.45;;;;;;;2.88;62.91;94865.50;5029466;28;20481;-74
2021/12/20 00:56:39;;;;;;;7.45;4.80;;;;;;;2.92;63.02;94874.81;5030084;28;20048;-73
2021/12/20 00:59:05;;;;;;;6.53;4.78;;;;;;;2.99;63.15;94879.53;5029420;28;20029;-73
2021/12/20 01:01:30;;;;;;;6.10;4.10;;;;;;;3.01;62.86;94870.47;5012184;28;20026;-73
2021/12/20 01:03:55;;;;;;;6.97;4.25;;;;;;;3.06;62.83;94870.84;5029323;28;20037;-74
2021/12/20 01:06:21;;;;;;;6.85;4.63;;;;;;;3.10;62.75;94882.00;5029794;28;20038;-74
2021/12/20 01:08:48;;;;;;;5.82;4.43;;;;;;;3.13;62.58;94887.03;5028879;28;20026;-74
2021/12/20 01:11:20;;;;;;;5.07;4.00;;;;;;;3.11;62.89;94898.75;5029061;28;20021;-74
2021/12/20 01:13:45;;;;;;;7.32;4.50;;;;;;;3.09;62.57;94894.41;5029823;28;20064;-74
2021/12/20 01:16:13;;;;;;;6.38;4.68;;;;;;;3.07;63.01;94884.97;5029323;28;20028;-74
2021/12/20 01:18:38;;;;;;;6.53;4.35;;;;;;;3.00;62.77;94889.16;5029523;28;20503;-73
2021/12/20 01:21:04;;;;;;;6.00;3.97;;;;;;;2.96;63.10;94886.81;5028916;28;20034;-74
2021/12/20 01:23:29;;;;;;;7.90;4.68;;;;;;;2.94;63.22;94891.41;5029408;28;20029;-74
2021/12/20 01:25:54;;;;;;;7.20;4.40;;;;;;;2.89;62.93;94891.00;5029220;28;20029;-74
2021/12/20 01:28:20;;;;;;;6.32;4.07;;;;;;;2.91;63.09;94894.34;5011610;28;20336;-73
2021/12/20 01:30:45;;;;;;;6.88;4.10;;;;;;;2.96;62.99;94888.63;5029358;28;20022;-73
2021/12/20 01:33:12;;;;;;;5.82;4.15;;;;;;;2.86;63.48;94885.13;5028540;28;20885;-73
2021/12/20 01:35:38;;;;;;;5.63;4.25;;;;;;;2.82;63.22;94885.44;5029096;28;20038;-74
2021/12/20 01:38:03;;;;;;;7.45;4.00;;;;;;;2.83;63.16;94892.41;5028501;28;20043;-73
2021/12/20 01:40:29;;;;;;;6.18;4.50;;;;;;;2.80;63.11;94876.81;5029199;28;20025;-73
2021/12/20 01:42:56;;;;;;;6.55;4.43;;;;;;;2.87;63.03;94886.84;5028604;28;20029;-73
2021/12/20 01:45:23;;;;;;;7.07;4.80;;;;;;;2.83;63.37;94889.75;5029282;28;20036;-74
2021/12/20 01:47:53;;;;;;;7.60;4.80;;;;;;;2.89;63.28;94882.19;5028753;28;20022;-73
2021/12/20 01:52:45;;;;;;;8.65;5.40;;;;;;;3.04;63.51;94893.19;5011021;28;20444;-73
2021/12/20 01:55:16;;;;;;;7.65;4.85;;;;;;;3.04;62.81;94883.44;5028785;28;20470;-73
2021/12/20 01:57:41;;;;;;;6.57;4.82;;;;;;;3.04;63.01;94891.38;5028800;28;20112;-74
2021/12/20 02:00:10;;;;;;;7.28;4.68;;;;;;;3.09;62.47;94886.47;5028086;28;20112;-73
2021/12/20 02:02:35;;;;;;;6.90;4.63;;;;;;;3.05;62.50;94889.56;5011585;28;20574;-73
2021/12/20 02:05:12;;;;;;;6.93;4.55;;;;;;;3.01;62.46;94899.63;5010005;28;20120;-74
2021/12/20 02:07:50;;;;;;;6.22;4.72;;;;;;;2.93;62.83;94891.56;5008728;28;20488;-74
2021/12/20 02:10:17;;;;;;;6.22;4.40;;;;;;;3.01;62.58;94890.84;4983168;28;20071;-74
2021/12/20 02:12:42;;;;;;;6.30;4.72;;;;;;;3.01;62.63;94890.84;5027956;28;20030;-73
2021/12/20 02:15:08;;;;;;;6.90;4.95;;;;;;;3.00;62.91;94887.34;5028780;28;20025;-75
2021/12/20 02:17:33;;;;;;;6.38;4.82;;;;;;;2.99;62.77;94884.84;5027778;28;20111;-73
2021/12/20 02:19:59;;;;;;;7.47;5.03;;;;;;;3.06;63.04;94889.41;5010307;28;20518;-74
2021/12/20 02:22:25;;;;;;;6.75;4.63;;;;;;;3.06;62.99;94897.34;5027642;28;20511;-73
2021/12/20 02:24:50;;;;;;;7.70;5.10;;;;;;;3.07;62.33;94896.41;5029247;28;20033;-74
2021/12/20 02:27:16;;;;;;;8.25;5.28;;;;;;;3.03;62.88;94897.66;5012978;28;20032;-74
2021/12/20 02:29:57;;;;;;;7.97;5.20;;;;;;;2.94;63.09;94904.66;5028719;28;20025;-74
2021/12/20 02:37:53;;;;;;;9.68;5.93;;;;;;;2.97;63.49;94890.28;5028100;28;20482;-73
2021/12/20 02:40:21;;;;;;;8.40;6.28;;;;;;;2.92;64.18;94895.16;5028093;28;20057;-74
2021/12/20 02:42:48;;;;;;;7.78;5.10;;;;;;;2.93;63.89;94896.84;5027450;28;20025;-74
2021/12/20 02:45:15;;;;;;;7.13;5.43;;;;;;;2.96;64.23;94900.06;5010182;28;20639;-74
2021/12/20 02:47:45;;;;;;;8.65;6.18;;;;;;;2.76;64.37;94901.88;5027577;28;20061;-74
2021/12/20 02:50:10;;;;;;;8.43;5.78;;;;;;;2.80;64.62;94903.28;5010075;28;20117;-73
2021/12/20 02:52:36;;;;;;;8.18;6.10;;;;;;;2.87;64.44;94900.06;4993224;28;20104;-74
2021/12/20 02:55:03;;;;;;;9.27;5.80;;;;;;;2.66;64.95;94898.44;5009836;28;20033;-74
2021/12/20 02:57:29;;;;;;;8.52;6.00;;;;;;;2.78;64.47;94885.84;5009753;28;20040;-74
2021/12/20 02:59:54;;;;;;;10.98;6.13;;;;;;;2.79;64.46;94888.38;5027070;28;20026;-74
2021/12/20 03:02:21;;;;;;;8.45;5.72;;;;;;;2.74;64.60;94903.84;5027739;28;20033;-73
2021/12/20 03:04:47;;;;;;;7.70;5.32;;;;;;;2.78;64.55;94894.66;5008723;28;20488;-73
2021/12/20 03:07:16;;;;;;;8.52;5.75;;;;;;;2.84;64.47;94895.88;5028055;28;20511;-73
2021/12/20 03:09:44;;;;;;;8.23;5.43;;;;;;;2.89;64.33;94896.28;5009924;28;20021;-74
2021/12/20 03:12:12;;;;;;;9.07;5.93;;;;;;;2.94;64.21;94904.66;5009714;28;20029;-74
2021/12/20 03:14:43;;;;;;;8.82;5.85;;;;;;;2.99;64.11;94896.28;5027321;28;20025;-74
2021/12/20 03:17:09;;;;;;;8.27;6.13;;;;;;;3.02;63.96;94895.13;5026727;28;20041;-73
2021/12/20 03:19:35;;;;;;;9.25;6.63;;;;;;;3.07;63.74;94892.91;5027422;28;20036;-72
2021/12/20 03:22:00;;;;;;;9.55;6.30;;;;;;;3.08;63.99;94900.72;5026545;28;20017;-73
2021/12/20 03:24:26;;;;;;;11.02;7.10;;;;;;;3.08;64.16;94894.56;5026807;28;20025;-73
2021/12/20 03:26:51;;;;;;;10.45;6.30;;;;;;;3.12;64.25;94895.13;5026614;28;20040;-74
2021/12/20 03:29:17;;;;;;;10.45;6.97;;;;;;;3.12;64.34;94892.47;5027606;28;20335;-74
2021/12/20 03:31:42;;;;;;;10.52;7.05;;;;;;;3.00;65.26;94892.63;5027038;28;20032;-74
2021/12/20 03:34:08;;;;;;;10.90;7.45;;;;;;;3.00;65.09;94905.88;5026844;28;20041;-74
2021/12/20 03:36:34;;;;;;;11.90;7.25;;;;;;;2.98;65.39;94910.50;5009603;28;20029;-73
2021/12/20 03:38:59;;;;;;;9.88;7.07;;;;;;;3.00;65.41;94903.22;5008357;28;20037;-74
2021/12/20 03:41:25;;;;;;;10.57;7.30;;;;;;;2.98;65.63;94910.50;5026738;28;20036;-74
2021/12/20 03:43:50;;;;;;;11.32;7.50;;;;;;;2.98;65.78;94905.22;5008757;28;20440;-74
2021/12/20 03:46:16;;;;;;;10.70;7.03;;;;;;;3.00;65.64;94900.59;4992940;28;20036;-75
2021/12/20 03:48:41;;;;;;;11.00;7.05;;;;;;;2.96;65.99;94899.22;5026251;28;20037;-74
2021/12/20 03:51:07;;;;;;;10.57;7.70;;;;;;;2.97;66.17;94901.72;5026945;28;20029;-75
2021/12/20 03:53:33;;;;;;;9.07;6.85;;;;;;;2.97;66.01;94891.13;5025834;28;20037;-73
2021/12/20 03:55:58;;;;;;;9.93;6.90;;;;;;;2.96;65.76;94897.41;5026537;28;20052;-74
2021/12/20 03:58:26;;;;;;;12.38;6.85;;;;;;;2.90;66.47;94897.13;5025793;28;20037;-74
2021/12/20 04:00:52;;;;;;;11.38;7.03;;;;;;;2.88;66.48;94896.44;5026109;28;20474;-73
2021/12/20 04:03:18;;;;;;;10.02;7.07;;;;;;;2.87;67.43;94892.94;5026556;28;20540;-73
2021/12/20 04:05:43;;;;;;;11.18;7.13;;;;;;;2.91;67.19;94898.81;5026053;28;20040;-74
2021/12/20 04:08:09;;;;;;;10.05;6.90;;;;;;;2.88;67.44;94915.81;5027032;28;20535;-73
2021/12/20 04:10:34;;;;;;;11.30;6.55;;;;;;;2.86;67.77;94898.38;5025957;28;20496;-74
2021/12/20 04:13:00;;;;;;;10.75;7.25;;;;;;;2.80;68.07;94899.81;5026394;28;20693;-74
2021/12/20 04:15:25;;;;;;;11.48;7.32;;;;;;;2.73;68.41;94918.06;5008647;28;20029;-74
2021/12/20 04:17:51;;;;;;;10.48;7.18;;;;;;;2.75;68.67;94910.81;5025894;28;20033;-73
2021/12/20 04:20:16;;;;;;;11.43;7.75;;;;;;;2.72;68.74;94917.22;5008504;28;20036;-73
2021/12/20 04:22:42;;;;;;;10.82;7.20;;;;;;;2.67;69.29;94929.22;5024953;28;20052;-74
2021/12/20 04:25:07;;;;;;;10.82;7.30;;;;;;;2.70;68.84;94928.94;5008837;28;20029;-73
2021/12/20 04:27:33;;;;;;;10.60;6.95;;;;;;;2.78;68.57;94941.47;5008012;28;20428;-73
2021/12/20 04:29:58;;;;;;;13.10;7.97;;;;;;;2.77;68.65;94935.38;5026643;28;20021;-74
2021/12/20 04:32:24;;;;;;;12.15;7.32;;;;;;;2.75;68.85;94932.00;5025587;28;20021;-76
2021/12/20 04:34:49;;;;;;;12.52;8.23;;;;;;;2.78;68.82;94947.63;5024967;28;20029;-75
2021/12/20 04:37:14;;;;;;;10.27;7.07;;;;;;;2.84;68.36;94949.69;5026148;28;20037;-73
2021/12/20 04:39:40;;;;;;;10.43;7.43;;;;;;;2.84;68.30;94955.00;5025642;28;20029;-74
2021/12/20 04:42:08;;;;;;;13.07;7.70;;;;;;;2.82;68.43;94956.13;5026217;28;20029;-73
2021/12/20 04:44:34;;;;;;;12.93;7.38;;;;;;;2.82;68.72;94958.78;5024892;28;20030;-74
2021/12/20 04:46:59;;;;;;;13.05;7.53;;;;;;;2.84;68.73;94960.28;5008609;28;20060;-73
2021/12/20 04:49:25;;;;;;;8.90;6.20;;;;;;;2.71;69.56;94957.94;5025511;28;20025;-74
2021/12/20 04:51:52;;;;;;;10.50;6.55;;;;;;;2.71;68.95;94957.09;5026054;28;20454;-73
2021/12/20 04:54:18;;;;;;;10.40;7.15;;;;;;;2.70;69.18;94950.97;5025994;28;20036;-74
2021/12/20 04:56:43;;;;;;;10.75;6.68;;;;;;;2.76;68.70;94957.50;5024625;28;20187;-73
2021/12/20 04:59:09;;;;;;;9.38;6.72;;;;;;;2.80;68.92;94958.91;5025802;28;20037;-73
2021/12/20 05:01:34;;;;;;;9.43;7.07;;;;;;;2.81;68.68;94965.88;5025310;28;20408;-74
2021/12/20 05:04:00;;;;;;;10.15;6.55;;;;;;;2.86;68.50;94959.31;5026323;28;20029;-73
2021/12/20 05:06:25;;;;;;;8.57;6.75;;;;;;;2.63;68.86;94964.91;5025053;28;20041;-73
2021/12/20 05:08:54;;;;;;;11.40;6.63;;;;;;;2.68;68.34;94963.50;5007402;28;20033;-74
2021/12/20 05:11:21;;;;;;;9.20;6.75;;;;;;;2.68;68.62;94975.91;5024957;28;20026;-73
2021/12/20 05:13:46;;;;;;;11.27;7.50;;;;;;;2.62;69.04;94963.22;5007493;28;20488;-73
2021/12/20 05:16:12;;;;;;;12.57;7.18;;;;;;;2.59;69.23;94965.19;5025366;28;20045;-72
2021/12/20 05:18:37;;;;;;;8.98;6.38;;;;;;;2.57;69.53;94972.44;5025045;28;20029;-74
2021/12/20 05:21:03;;;;;;;10.05;6.35;;;;;;;2.62;69.22;94973.81;5025894;28;20018;-74
2021/12/20 05:23:28;;;;;;;9.90;6.68;;;;;;;2.64;69.03;94966.56;5025171;28;20026;-73
2021/12/20 05:25:55;;;;;;;9.98;6.43;;;;;;;2.61;69.38;94964.22;5009212;28;20032;-73
2021/12/20 05:28:21;;;;;;;8.90;6.65;;;;;;;2.63;68.96;94963.09;5007680;28;20061;-73
2021/12/20 05:30:49;;;;;;;8.63;6.53;;;;;;;2.66;68.82;94954.03;5025168;28;20037;-72
2021/12/20 05:33:15;;;;;;;8.55;6.30;;;;;;;2.70;68.67;94958.06;5025844;28;20045;-74
2021/12/20 05:35:40;;;;;;;9.32;6.07;;;;;;;2.59;69.16;94970.50;5027385;28;20033;-73
2021/12/20 05:38:06;;;;;;;8.98;6.78;;;;;;;2.49;69.71;94985.53;5029369;28;20029;-73
2021/12/20 05:40:31;;;;;;;7.93;5.43;;;;;;;2.34;70.68;94977.13;5028758;28;20041;-73
2021/12/20 05:42:56;;;;;;;9.02;6.55;;;;;;;2.40;70.32;94975.75;5029289;28;20032;-72
2021/12/20 05:45:23;;;;;;;9.23;6.45;;;;;;;2.30;70.89;94973.09;5027977;28;20476;-74
2021/12/20 05:47:49;;;;;;;8.98;6.53;;;;;;;2.32;70.36;94971.97;5029237;28;20468;-73
2021/12/20 05:50:15;;;;;;;9.57;6.65;;;;;;;2.22;70.91;94979.09;5028868;28;20472;-74
2021/12/20 05:52:41;;;;;;;9.90;6.88;;;;;;;2.39;70.31;94984.66;5028539;28;20543;-72
2021/12/20 05:55:07;;;;;;;10.77;7.75;;;;;;;2.21;71.02;94986.16;5029019;28;20025;-74
2021/12/20 05:57:33;;;;;;;9.48;6.50;;;;;;;2.14;70.84;94990.34;5028275;28;20409;-75
2021/12/20 06:00:02;;;;;;;10.18;7.03;;;;;;;2.14;71.47;94986.84;5028320;28;20562;-74
2021/12/20 06:02:27;;;;;;;10.13;6.95;;;;;;;2.17;71.02;94992.72;5026926;28;20025;-72
2021/12/20 06:04:52;;;;;;;9.07;6.03;;;;;;;2.12;71.43;94999.38;5029042;28;20032;-73
2021/12/20 06:07:19;;;;;;;11.70;6.88;;;;;;;2.28;70.95;95005.00;5028422;28;20025;-74
2021/12/20 06:09:44;;;;;;;9.68;6.38;;;;;;;2.19;71.00;95008.47;5010860;28;20031;-73
2021/12/20 06:12:10;;;;;;;10.00;6.90;;;;;;;2.28;70.75;95001.50;5028441;28;20519;-76
2021/12/20 06:14:36;;;;;;;8.35;6.40;;;;;;;2.22;71.27;95005.53;5028019;28;20029;-73
2021/12/20 06:17:01;;;;;;;10.88;6.80;;;;;;;2.39;70.09;95016.41;5028278;28;20029;-73
2021/12/20 06:19:27;;;;;;;11.85;7.30;;;;;;;2.44;70.58;95015.06;5010217;28;20087;-73
2021/12/20 06:21:52;;;;;;;10.68;7.60;;;;;;;2.43;70.64;95017.84;5028382;28;20026;-74
2021/12/20 06:24:17;;;;;;;9.57;6.95;;;;;;;2.42;70.27;95013.53;5010244;28;20029;-74
2021/12/20 06:26:43;;;;;;;11.52;8.23;;;;;;;2.35;70.80;95016.69;5028102;28;20026;-73
2021/12/20 06:29:08;;;;;;;11.73;8.00;;;;;;;2.53;70.21;95013.38;5027935;28;20026;-73
2021/12/20 06:31:34;;;;;;;12.05;7.88;;;;;;;2.60;70.00;95018.97;5010325;28;20032;-73
2021/12/20 06:33:59;;;;;;;12.18;8.57;;;;;;;2.58;70.32;95028.84;5009592;28;20123;-73
2021/12/20 06:36:26;;;;;;;13.35;7.63;;;;;;;2.63;70.10;95029.28;4995902;28;20087;-76
2021/12/20 06:38:54;;;;;;;11.18;7.28;;;;;;;2.64;69.76;95024.84;5025543;28;20056;-76
2021/12/20 06:41:20;;;;;;;10.27;7.28;;;;;;;2.69;69.92;95033.22;5027377;28;20029;-73
2021/12/20 06:43:45;;;;;;;14.05;8.93;;;;;;;2.71;69.99;95042.69;5010911;28;20033;-73
2021/12/20 06:46:11;;;;;;;15.40;9.27;;;;;;;2.75;69.51;95032.66;5008342;28;20107;-74
2021/12/20 06:48:36;;;;;;;10.57;6.72;;;;;;;2.78;69.10;95037.66;5028315;28;20033;-76
2021/12/20 06:51:02;;;;;;;9.75;6.72;;;;;;;2.81;69.14;95032.09;5024059;28;20026;-74
2021/12/20 06:53:27;;;;;;;11.18;6.85;;;;;;;2.86;68.75;95033.47;5021220;28;20093;-75
2021/12/20 06:55:53;;;;;;;12.35;6.45;;;;;;;2.83;69.18;95024.84;5027626;28;20045;-73
2021/12/20 06:58:18;;;;;;;8.98;6.40;;;;;;;2.81;68.75;95037.38;5027101;28;20030;-74
2021/12/20 07:00:44;;;;;;;8.90;5.78;;;;;;;2.87;68.65;95030.69;5020301;28;20025;-74
2021/12/20 07:03:09;;;;;;;9.00;6.15;;;;;;;2.87;68.29;95040.47;5007322;28;20034;-73
2021/12/20 07:05:35;;;;;;;7.07;5.22;;;;;;;2.87;68.65;95038.63;5011403;28;20091;-72
2021/12/20 07:08:02;;;;;;;8.60;5.72;;;;;;;2.78;69.28;95037.66;5015911;28;20166;-72
2021/12/20 07:10:27;;;;;;;7.30;5.55;;;;;;;2.81;69.16;95042.69;5003953;28;20041;-73
2021/12/20 07:12:53;;;;;;;8.65;6.22;;;;;;;2.83;69.12;95040.75;5024590;28;20123;-74
2021/12/20 07:15:19;;;;;;;7.85;5.50;;;;;;;2.86;68.52;95044.06;4987971;28;20034;-74
2021/12/20 07:17:44;;;;;;;8.00;5.60;;;;;;;2.88;68.88;95036.84;4989370;28;20112;-74
2021/12/20 07:20:10;;;;;;;6.80;5.00;;;;;;;2.92;69.71;95032.91;5014699;28;20527;-76
2021/12/20 07:22:36;;;;;;;8.13;5.50;;;;;;;2.83;69.26;95040.75;5026822;28;20120;-73
2021/12/20 07:25:03;;;;;;;7.88;5.50;;;;;;;2.90;68.75;95050.78;5025780;28;20049;-73
2021/12/20 07:27:30;;;;;;;7.18;5.25;;;;;;;2.80;68.93;95042.81;5026344;28;20142;-74
2021/12/20 07:29:56;;;;;;;8.38;5.20;;;;;;;2.80;68.20;95048.13;5020929;28;20063;-74
2021/12/20 07:32:21;;;;;;;6.32;4.75;;;;;;;2.82;68.15;95048.84;5006650;28;20033;-74
2021/12/20 07:34:47;;;;;;;8.25;5.50;;;;;;;2.78;68.29;95044.78;5025493;28;20037;-74
2021/12/20 07:37:12;;;;;;;7.10;4.57;;;;;;;2.82;67.50;95040.88;5024798;28;20045;-74
2021/12/20 07:39:37;;;;;;;8.07;4.97;;;;;;;2.91;67.40;95032.09;5025841;28;20040;-74
2021/12/20 07:42:03;;;;;;;7.43;4.40;;;;;;;2.93;67.17;95046.06;5024641;28;20021;-74
2021/12/20 07:44:29;;;;;;;5.82;4.78;;;;;;;3.00;66.97;95035.72;5024765;28;20037;-73
2021/12/20 07:46:54;;;;;;;5.50;4.10;;;;;;;3.23;66.39;95043.38;5024286;28;20031;-73
2021/12/20 07:49:19;;;;;;;7.80;5.28;;;;;;;2.95;66.86;95027.38;5002677;28;20646;-76
2021/12/20 07:51:45;;;;;;;8.38;5.03;;;;;;;2.97;66.71;95033.34;5007328;28;20439;-73
2021/12/20 07:54:10;;;;;;;7.88;5.07;;;;;;;3.20;66.50;95025.94;5022953;28;20034;-74
2021/12/20 07:56:36;;;;;;;6.40;4.47;;;;;;;3.53;65.58;95040.69;5005764;28;20670;-75
2021/12/20 07:59:02;;;;;;;7.60;4.57;;;;;;;3.62;65.50;95038.97;5026047;28;20029;-74
2021/12/20 08:01:27;;;;;;;7.20;4.40;;;;;;;3.52;65.42;95046.94;5007850;28;20033;-74
2021/12/20 08:03:53;;;;;;;7.43;4.70;;;;;;;3.54;64.94;95067.06;5025824;28;20021;-75
2021/12/20 08:06:18;;;;;;;6.57;4.88;;;;;;;3.46;65.21;95056.31;5026590;28;20079;-75
2021/12/20 08:08:44;;;;;;;6.07;4.25;;;;;;;3.51;65.17;95058.56;5026053;28;20034;-75
2021/12/20 08:11:10;;;;;;;5.47;4.43;;;;;;;3.82;64.83;95061.00;5026059;28;20033;-74
2021/12/20 08:13:44;;;;;;;6.32;4.40;;;;;;;3.95;63.23;95064.16;5026111;28;20029;-76
2021/12/20 08:16:09;;;;;;;5.47;4.22;;;;;;;3.84;63.98;95069.63;5025832;28;20022;-74
2021/12/20 08:18:35;;;;;;;7.47;5.20;;;;;;;3.89;63.96;95072.69;5026652;28;20087;-75
2021/12/20 08:21:00;;;;;;;7.55;5.10;;;;;;;3.93;64.20;95073.25;5025852;28;20469;-75
2021/12/20 08:23:26;;;;;;;6.28;4.72;;;;;;;3.95;63.81;95072.13;5026514;28;20030;-76
2021/12/20 08:25:51;;;;;;;8.57;5.55;;;;;;;3.87;64.20;95072.00;5026026;28;20025;-74
2021/12/20 08:28:16;;;;;;;12.18;6.65;;;;;;;3.95;64.20;95066.81;5026013;28;20029;-77
2021/12/20 08:30:42;;;;;;;7.50;5.43;;;;;;;3.88;64.29;95075.50;5026303;28;20025;-76
2021/12/20 08:33:07;;;;;;;6.68;4.97;;;;;;;3.90;63.90;95063.75;5025612;28;20045;-75
2021/12/20 08:35:33;;;;;;;6.55;4.88;;;;;;;4.03;63.37;95062.59;5026140;28;20025;-77
2021/12/20 08:37:58;;;;;;;6.53;4.78;;;;;;;3.97;63.29;95056.03;5025772;28;20029;-76
2021/12/20 08:40:24;;;;;;;6.03;4.20;;;;;;;4.02;62.57;95061.75;5026283;28;20030;-76
2021/12/20 08:42:49;;;;;;;6.43;4.35;;;;;;;3.86;63.36;95064.19;5007983;28;20037;-77
2021/12/20 08:45:15;;;;;;;5.70;4.18;;;;;;;3.84;63.21;95061.66;5026357;28;20036;-75
2021/12/20 08:47:41;;;;;;;5.18;4.07;;;;;;;3.79;62.62;95078.03;5025516;28;20407;-74
2021/12/20 08:50:09;;;;;;;6.70;4.38;;;;;;;3.77;63.01;95061.41;5026007;28;20029;-74
2021/12/20 08:52:35;;;;;;;5.63;4.22;;;;;;;3.71;62.25;95060.19;5025964;28;20032;-76
2021/12/20 08:55:00;;;;;;;10.75;4.63;;;;;;;3.82;62.79;95056.50;5025609;28;20112;-75
2021/12/20 08:57:26;;;;;;;8.00;4.80;;;;;;;3.77;62.98;95060.59;5026188;28;20022;-76
2021/12/20 08:59:51;;;;;;;5.80;4.30;;;;;;;3.74;63.01;95067.00;5025276;28;20025;-76
2021/12/20 09:02:16;;;;;;;6.32;4.55;;;;;;;3.78;63.38;95064.91;5008685;28;20017;-75
2021/12/20 09:04:42;;;;;;;7.93;5.50;;;;;;;3.83;62.63;95065.31;5007924;28;20030;-75
2021/12/20 09:07:14;;;;;;;7.30;5.25;;;;;;;3.71;62.75;95059.34;5025775;28;20029;-75
2021/12/20 09:09:43;;;;;;;8.00;5.10;;;;;;;3.80;63.15;95065.59;5010158;28;20057;-77
2021/12/20 09:12:08;;;;;;;7.90;5.35;;;;;;;3.81;61.99;95054.84;5029439;28;20163;-74
2021/12/20 09:14:34;;;;;;;7.20;4.57;;;;;;;3.70;61.64;95052.38;5029777;28;20104;-76
2021/12/20 09:17:00;;;;;;;6.38;4.30;;;;;;;3.69;61.75;95040.91;5028997;28;20029;-75
2021/12/20 09:19:26;;;;;;;5.45;3.75;;;;;;;3.74;62.49;95029.03;5030336;28;20163;-76
2021/12/20 09:21:52;;;;;;;6.50;4.45;;;;;;;3.71;62.79;95051.38;5029192;28;20109;-76
2021/12/20 09:24:17;;;;;;;7.55;4.60;;;;;;;3.86;62.13;95045.59;5029851;28;20033;-75
2021/12/20 09:26:42;;;;;;;5.45;3.80;;;;;;;3.85;61.47;95039.47;5029418;28;20083;-75
2021/12/20 09:29:08;;;;;;;5.07;3.80;;;;;;;3.73;61.79;95054.72;5029256;28;20017;-73
2021/12/20 09:31:33;;;;;;;5.10;3.65;;;;;;;3.81;62.03;95049.53;5029323;28;20025;-75
2021/12/20 09:33:59;;;;;;;5.20;3.50;;;;;;;3.74;62.10;95032.50;5029348;28;20049;-75
2021/12/20 09:36:29;;;;;;;4.90;3.30;;;;;;;3.76;61.46;95043.81;5030340;28;20446;-74
2021/12/20 09:38:55;;;;;;;4.43;2.97;;;;;;;3.71;62.00;95043.41;5029565;28;20029;-74
2021/12/20 09:44:23;;;;;;;3.55;3.00;;;;;;;3.73;61.52;95054.72;4949305;29;20039;-75
2021/12/20 09:46:49;;;;;;;4.20;2.83;;;;;;;3.62;62.52;95033.66;5012308;28;20045;-75
2021/12/20 09:49:14;;;;;;;4.18;3.00;;;;;;;3.71;61.98;95043.41;4995901;28;20022;-76
2021/12/20 09:51:39;;;;;;;5.03;3.17;;;;;;;3.68;62.23;95057.81;5028494;28;20030;-75
2021/12/20 09:54:05;;;;;;;3.85;2.97;;;;;;;3.68;62.45;95046.34;5030064;28;20029;-75
2021/12/20 09:56:30;;;;;;;3.83;3.15;;;;;;;3.66;62.44;95053.66;5011129;28;20091;-74
2021/12/20 09:58:57;;;;;;;3.90;3.22;;;;;;;3.65;62.54;95057.25;5011036;28;20037;-74
2021/12/20 10:01:23;;;;;;;3.95;3.13;;;;;;;3.63;62.70;95048.63;5011487;28;20053;-74
2021/12/20 10:03:49;;;;;;;4.43;3.13;;;;;;;3.63;62.53;95045.97;5028711;28;20052;-74
2021/12/20 10:06:14;;;;;;;5.68;3.25;;;;;;;3.53;62.80;95070.66;5011418;28;20542;-75
2021/12/20 10:08:49;;;;;;;6.90;3.72;;;;;;;3.58;63.49;95059.63;4994585;28;20017;-74
2021/12/20 10:11:22;;;;;;;4.25;3.30;;;;;;;3.51;64.17;95054.09;5029296;28;20083;-73
2021/12/20 10:13:47;;;;;;;6.15;3.33;;;;;;;3.49;63.58;95048.09;5010412;28;20036;-75
2021/12/20 10:16:18;;;;;;;4.53;3.13;;;;;;;3.62;62.45;95054.88;5028884;28;20025;-75
2021/12/20 10:18:44;;;;;;;5.93;3.30;;;;;;;3.61;63.54;95056.69;5028763;28;20030;-75
2021/12/20 10:21:09;;;;;;;3.60;2.92;;;;;;;3.57;62.88;95048.22;5027849;28;20025;-74
2021/12/20 10:23:42;;;;;;;4.47;3.20;;;;;;;3.51;62.99;95058.56;5028717;28;20419;-75
2021/12/20 10:26:13;;;;;;;4.93;3.53;;;;;;;3.50;63.75;95039.13;5010454;28;20033;-75
2021/12/20 10:28:38;;;;;;;4.50;3.40;;;;;;;3.51;64.15;95048.78;5011465;28;20091;-75
2021/12/20 10:31:26;;;;;;;4.47;3.30;;;;;;;3.39;64.15;95041.94;5027883;28;20080;-75
2021/12/20 10:33:53;;;;;;;6.28;3.67;;;;;;;3.41;64.67;95054.09;5027844;28;20044;-75
2021/12/20 10:36:19;;;;;;;5.50;4.05;;;;;;;3.40;65.72;95055.06;5028419;28;20397;-74
2021/12/20 10:38:56;;;;;;;6.30;4.05;;;;;;;3.43;65.62;95051.31;5027738;28;20040;-73
2021/12/20 10:41:29;;;;;;;5.13;3.67;;;;;;;3.25;66.37;95054.69;5029001;28;20024;-75
2021/12/20 10:43:58;;;;;;;;;;;;;;;3.22;66.83;95052.31;5028174;28;20498;-76
2021/12/20 10:46:27;;;;;;;5.80;4.00;;;;;;;3.11;67.18;95042.69;5028519;28;19913;-76
2021/12/20 10:49:08;;;;;;;4.55;3.60;;;;;;;3.11;67.24;95052.47;5028279;28;20033;-75
2021/12/20 10:51:38;;;;;;;4.82;3.70;;;;;;;3.16;66.78;95039.63;4994623;28;20459;-74
2021/12/20 10:54:09;;;;;;;5.20;3.90;;;;;;;3.20;66.71;95046.31;5028088;28;20044;-76
2021/12/20 10:56:36;;;;;;;6.93;4.45;;;;;;;3.05;67.08;95048.53;5027389;28;20514;-75
2021/12/20 10:59:06;;;;;;;7.43;4.60;;;;;;;3.03;66.79;95032.78;5010308;28;20032;-75
2021/12/20 11:04:27;;;;;;;5.95;4.18;;;;;;;3.29;66.15;95040.16;5027382;28;20100;-76
2021/12/20 11:09:49;;;;;;;7.28;3.97;;;;;;;3.32;65.59;95039.88;4996138;28;20119;-76
2021/12/20 11:12:20;;;;;;;5.65;4.05;;;;;;;3.34;65.53;95032.63;5010111;28;20503;-75
2021/12/20 11:14:47;;;;;;;5.68;4.07;;;;;;;3.37;65.20;95041.28;5027526;28;20034;-77
2021/12/20 11:17:17;;;;;;;5.15;3.97;;;;;;;3.31;65.64;95047.97;5009482;28;20029;-75
2021/12/20 11:19:44;;;;;;;5.97;3.55;;;;;;;3.34;65.18;95031.78;5027698;28;20413;-75
2021/12/20 11:22:11;;;;;;;5.55;3.70;;;;;;;3.45;64.93;95022.84;5026907;28;20029;-75
2021/12/20 11:24:36;;;;;;;5.43;3.40;;;;;;;3.58;64.25;95023.34;5009884;28;20021;-76
2021/12/20 11:27:03;;;;;;;8.15;3.20;;;;;;;3.63;63.83;95030.06;5026755;28;20039;-76
2021/12/20 11:29:29;;;;;;;6.95;3.22;;;;;;;3.61;62.87;95018.75;5028164;28;20064;-77
2021/12/20 11:31:54;;;;;;;4.15;3.03;;;;;;;3.53;63.11;95016.81;5026605;28;20400;-76
2021/12/20 11:34:20;;;;;;;4.22;3.10;;;;;;;3.36;63.43;95019.22;5026370;28;20052;-76
2021/12/20 11:36:45;;;;;;;4.72;3.28;;;;;;;3.32;64.54;95029.25;5026918;28;20482;-76
2021/12/20 11:39:10;;;;;;;3.20;2.50;;;;;;;3.33;63.19;95030.97;5026388;28;20052;-75
2021/12/20 11:41:36;;;;;;;4.07;2.80;;;;;;;3.42;63.83;95029.25;5027343;28;20087;-76
2021/12/20 11:44:03;;;;;;;4.25;2.65;;;;;;;3.44;63.80;95037.06;5008783;28;20025;-76
2021/12/20 11:46:40;;;;;;;4.32;2.75;;;;;;;3.41;63.54;95043.50;5027330;28;20049;-75
2021/12/20 11:49:05;;;;;;;4.20;2.80;;;;;;;3.35;63.34;95044.06;5026855;28;20029;-76
2021/12/20 11:51:54;;;;;;;3.60;2.53;;;;;;;3.46;63.27;95046.56;5009159;28;20393;-76
2021/12/20 11:54:49;;;;;;;4.57;2.70;;;;;;;3.48;63.20;95035.81;5009288;28;20021;-77
2021/12/20 11:57:30;;;;;;;3.30;2.67;;;;;;;3.48;63.99;95042.94;5026026;28;20068;-74